createdAt,value
2019-05-13T00:03:46.013Z,5.90
2019-05-13T00:07:53.991Z,5.90
2019-05-13T00:11:51.254Z,5.80
2019-05-13T00:15:49.930Z,5.70
2019-05-13T00:20:04.227Z,5.60
2019-05-13T00:23:58.064Z,5.50
2019-05-13T00:27:56.541Z,5.40
2019-05-13T00:32:00.133Z,5.40
2019-05-13T00:36:03.953Z,5.40
2019-05-13T00:40:03.958Z,5.30
2019-05-13T00:44:17.970Z,5.20
2019-05-13T00:48:18.772Z,5.10
2019-05-13T00:52:23.450Z,4.90
2019-05-13T00:56:24.427Z,4.80
2019-05-13T01:00:34.030Z,4.70
2019-05-13T01:04:33.969Z,4.60
2019-05-13T01:08:33.862Z,4.60
2019-05-13T01:12:34.588Z,4.40
2019-05-13T01:16:38.076Z,4.30
2019-05-13T01:20:45.458Z,4.30
2019-05-13T01:24:44.321Z,4.20
2019-05-13T01:28:45.114Z,4.20
2019-05-13T01:32:44.845Z,4.30
2019-05-13T01:36:44.628Z,4.40
2019-05-13T01:40:44.547Z,4.40
2019-05-13T01:44:45.857Z,4.30
2019-05-13T01:48:44.412Z,4.10
2019-05-13T01:52:44.535Z,4.00
2019-05-13T01:56:49.881Z,3.90
2019-05-13T02:00:51.480Z,3.80
2019-05-13T02:04:54.622Z,3.60
2019-05-13T02:08:56.484Z,3.40
2019-05-13T02:12:59.569Z,3.40
2019-05-13T02:17:04.189Z,3.30
2019-05-13T02:21:10.604Z,3.20
2019-05-13T02:25:13.776Z,3.10
2019-05-13T02:29:15.764Z,2.90
2019-05-13T02:33:14.327Z,2.90
2019-05-13T02:37:15.484Z,2.90
2019-05-13T02:41:18.518Z,2.80
2019-05-13T02:45:17.322Z,2.70
2019-05-13T02:49:22.896Z,2.60
2019-05-13T02:53:25.909Z,2.50
2019-05-13T02:57:33.060Z,2.50
2019-05-13T03:01:39.317Z,2.50
2019-05-13T03:05:42.640Z,2.40
2019-05-13T03:09:42.257Z,2.40
2019-05-13T03:13:42.606Z,2.30
2019-05-13T03:18:03.179Z,2.20
2019-05-13T03:26:14.302Z,1.90
2019-05-13T03:30:16.699Z,1.90
2019-05-13T03:34:15.747Z,1.80
2019-05-13T03:38:15.087Z,1.80
2019-05-13T03:42:16.759Z,1.80
2019-05-13T03:46:23.170Z,1.80
2019-05-13T03:50:25.204Z,1.80
2019-05-13T03:54:23.792Z,1.70
2019-05-13T03:58:23.824Z,1.80
2019-05-13T04:02:26.159Z,1.80
2019-05-13T04:06:25.383Z,1.70
2019-05-13T04:14:42.563Z,1.90
2019-05-13T04:18:42.586Z,1.90
2019-05-13T04:22:46.144Z,2.00
2019-05-13T04:26:44.734Z,2.00
2019-05-13T04:30:43.808Z,2.00
2019-05-13T04:34:43.768Z,2.10
2019-05-13T04:38:44.250Z,2.20
2019-05-13T04:42:46.747Z,2.30
2019-05-13T04:46:45.510Z,2.40
2019-05-13T04:50:45.220Z,2.50
2019-05-13T04:54:45.405Z,2.60
2019-05-13T04:58:47.206Z,2.70
2019-05-13T05:03:22.818Z,2.80
2019-05-13T05:07:37.180Z,2.90
2019-05-13T05:12:02.043Z,3.10
2019-05-13T05:16:33.377Z,3.20
2019-05-13T05:20:51.921Z,3.30
2019-05-13T05:25:11.683Z,3.40
2019-05-13T05:29:32.074Z,3.50
2019-05-13T05:33:34.082Z,3.70
2019-05-13T05:38:02.802Z,4.10
2019-05-13T05:42:03.528Z,4.50
2019-05-13T05:46:07.098Z,4.80
2019-05-13T05:50:11.958Z,5.10
2019-05-13T05:54:17.904Z,5.40
2019-05-13T05:58:17.303Z,5.50
2019-05-13T06:02:19.031Z,5.80
2019-05-13T06:06:32.755Z,6.40
2019-05-13T06:10:44.256Z,6.60
2019-05-13T06:14:32.979Z,6.60
2019-05-13T06:18:32.592Z,6.70
2019-05-13T06:22:42.390Z,6.80
2019-05-13T06:26:41.771Z,6.90
2019-05-13T06:30:41.578Z,6.90
2019-05-13T06:34:43.042Z,7.00
2019-05-13T06:38:43.935Z,7.10
2019-05-13T06:42:42.458Z,7.20
2019-05-13T06:46:42.458Z,7.30
2019-05-13T06:50:44.998Z,7.40
2019-05-13T06:59:24.196Z,7.90
2019-05-13T07:03:22.754Z,7.80
2019-05-13T07:07:24.250Z,7.80
2019-05-13T07:11:25.055Z,7.80
2019-05-13T07:15:26.220Z,7.90
2019-05-13T07:19:32.545Z,8.20
2019-05-13T07:23:34.708Z,8.40
2019-05-13T07:27:33.245Z,8.60
2019-05-13T07:31:35.635Z,8.60
2019-05-13T07:35:38.110Z,8.70
2019-05-13T07:39:38.038Z,8.80
2019-05-13T07:43:38.447Z,9.10
2019-05-13T07:47:41.674Z,9.20
2019-05-13T07:51:42.050Z,9.60
2019-05-13T07:55:53.347Z,9.90
2019-05-13T07:59:52.509Z,9.80
2019-05-13T08:03:51.682Z,9.80
2019-05-13T08:07:55.019Z,9.60
2019-05-13T08:12:05.424Z,9.50
2019-05-13T08:16:02.056Z,9.70
2019-05-13T08:20:02.875Z,9.80
2019-05-13T08:24:02.788Z,9.90
2019-05-13T08:28:05.030Z,10.40
2019-05-13T08:32:05.838Z,10.50
2019-05-13T08:36:08.979Z,11.00
2019-05-13T08:40:08.607Z,11.00
2019-05-13T08:44:07.247Z,10.90
2019-05-13T08:48:06.669Z,10.90
2019-05-13T08:52:12.288Z,10.90
2019-05-13T08:56:14.333Z,11.00
2019-05-13T09:00:16.043Z,11.20
2019-05-13T09:04:14.669Z,11.30
2019-05-13T09:08:14.544Z,11.50
2019-05-13T09:12:28.186Z,11.60
2019-05-13T09:16:13.553Z,11.70
2019-05-13T09:20:12.061Z,11.80
2019-05-13T09:24:21.710Z,11.90
2019-05-13T09:28:14.031Z,12.00
2019-05-13T09:32:12.899Z,11.90
2019-05-13T09:36:12.570Z,12.10
2019-05-13T09:40:15.209Z,12.20
2019-05-13T09:44:13.736Z,12.40
2019-05-13T09:48:13.820Z,12.50
2019-05-13T09:52:12.404Z,12.60
2019-05-13T09:56:11.817Z,12.60
2019-05-13T10:00:16.205Z,12.60
2019-05-13T10:04:14.973Z,12.60
2019-05-13T10:08:17.998Z,12.80
2019-05-13T10:12:13.931Z,12.80
2019-05-13T10:16:12.585Z,12.60
2019-05-13T10:20:13.739Z,12.70
2019-05-13T10:24:12.912Z,13.00
2019-05-13T10:28:13.288Z,13.10
2019-05-13T10:32:12.018Z,13.20
2019-05-13T10:36:12.121Z,13.30
2019-05-13T10:40:11.745Z,13.20
2019-05-13T10:44:12.080Z,12.90
2019-05-13T10:48:13.440Z,12.90
2019-05-13T10:52:12.463Z,13.20
2019-05-13T10:56:11.292Z,13.30
2019-05-13T11:00:12.343Z,13.40
2019-05-13T11:04:13.607Z,13.40
2019-05-13T11:08:11.284Z,13.60
2019-05-13T11:12:12.445Z,13.80
2019-05-13T11:16:12.276Z,13.90
2019-05-13T11:20:15.881Z,13.90
2019-05-13T11:24:14.423Z,14.10
2019-05-13T11:28:17.630Z,14.10
2019-05-13T11:32:16.156Z,14.00
2019-05-13T11:36:19.112Z,14.10
2019-05-13T11:40:18.706Z,14.30
2019-05-13T11:44:22.841Z,14.40
2019-05-13T11:48:23.475Z,14.50
2019-05-13T11:52:22.700Z,14.50
2019-05-13T11:56:24.307Z,14.70
2019-05-13T12:00:33.518Z,15.00
2019-05-13T12:04:34.351Z,15.00
2019-05-13T12:08:33.882Z,15.00
2019-05-13T12:12:34.644Z,15.10
2019-05-13T12:16:34.981Z,15.00
2019-05-13T12:20:34.093Z,15.00
2019-05-13T12:24:36.067Z,15.00
2019-05-13T12:28:53.197Z,15.00
2019-05-13T12:32:51.979Z,15.00
2019-05-13T12:36:50.990Z,15.10
2019-05-13T12:40:52.527Z,15.30
2019-05-13T12:45:03.829Z,15.40
2019-05-13T12:49:00.008Z,15.40
2019-05-13T12:53:02.688Z,15.50
2019-05-13T12:57:03.548Z,15.60
2019-05-13T13:01:08.265Z,15.50
2019-05-13T13:05:10.579Z,15.60
2019-05-13T13:09:09.255Z,15.70
2019-05-13T13:13:11.402Z,15.70
2019-05-13T13:17:13.698Z,16.00
2019-05-13T13:21:17.311Z,16.20
2019-05-13T13:25:38.308Z,16.20
2019-05-13T13:29:36.943Z,16.10
2019-05-13T13:33:38.849Z,16.10
2019-05-13T13:37:37.361Z,16.30
2019-05-13T13:41:36.122Z,16.40
2019-05-13T13:46:06.087Z,16.40
2019-05-13T13:49:35.487Z,16.70
2019-05-13T13:53:44.532Z,17.00
2019-05-13T13:57:44.977Z,17.60
2019-05-13T14:01:44.486Z,18.70
2019-05-13T14:05:44.952Z,18.40
2019-05-13T14:09:45.774Z,17.80
2019-05-13T14:13:44.297Z,17.50
2019-05-13T14:17:45.733Z,17.50
2019-05-13T14:21:46.550Z,17.50
2019-05-13T14:25:45.251Z,17.60
2019-05-13T14:29:49.082Z,17.30
2019-05-13T14:33:47.971Z,17.30
2019-05-13T14:37:46.897Z,19.40
2019-05-13T14:41:46.222Z,23.40
2019-05-13T14:45:52.101Z,26.60
2019-05-13T14:49:52.088Z,28.60
2019-05-13T14:53:53.321Z,28.90
2019-05-13T14:57:55.924Z,28.60
2019-05-13T15:01:58.355Z,29.30
2019-05-13T15:06:03.540Z,30.10
2019-05-13T15:10:10.330Z,29.80
2019-05-13T15:14:12.283Z,31.00
2019-05-13T15:18:14.195Z,30.40
2019-05-13T15:22:15.990Z,30.60
2019-05-13T15:26:14.688Z,30.60
2019-05-13T15:30:18.015Z,31.20
2019-05-13T15:34:27.298Z,31.30
2019-05-13T15:38:28.501Z,32.20
2019-05-13T15:42:27.346Z,31.70
2019-05-13T15:46:28.250Z,31.70
2019-05-13T15:50:28.973Z,32.00
2019-05-13T15:54:27.518Z,32.10
2019-05-13T15:58:38.432Z,31.70
2019-05-13T16:02:26.194Z,31.90
2019-05-13T16:06:24.752Z,30.90
2019-05-13T16:10:23.843Z,28.50
2019-05-13T16:14:31.483Z,27.50
2019-05-13T16:18:31.628Z,26.80
2019-05-13T16:22:31.555Z,23.60
2019-05-13T16:26:31.848Z,20.60
2019-05-13T16:30:32.093Z,19.00
2019-05-13T16:34:33.241Z,18.10
2019-05-13T16:38:33.047Z,17.50
2019-05-13T16:42:37.072Z,17.20
2019-05-13T16:46:35.618Z,17.30
2019-05-13T16:50:34.303Z,17.50
2019-05-13T16:54:33.183Z,17.40
2019-05-13T16:58:34.184Z,16.90
2019-05-13T17:02:34.518Z,16.50
2019-05-13T17:06:33.490Z,16.10
2019-05-13T17:10:35.310Z,15.70
2019-05-13T17:14:35.271Z,15.40
2019-05-13T17:18:34.434Z,15.20
2019-05-13T17:22:32.958Z,15.00
2019-05-13T17:26:32.705Z,15.00
2019-05-13T17:30:36.885Z,14.80
2019-05-13T17:34:35.393Z,14.80
2019-05-13T17:38:33.900Z,14.80
2019-05-13T17:42:37.439Z,14.60
2019-05-13T17:46:35.938Z,14.50
2019-05-13T17:50:37.383Z,14.40
2019-05-13T17:54:37.734Z,14.40
2019-05-13T17:58:47.263Z,14.30
2019-05-13T18:02:47.577Z,14.10
2019-05-13T18:06:47.583Z,13.90
2019-05-13T18:10:46.128Z,13.90
2019-05-13T18:14:44.653Z,13.80
2019-05-13T18:18:47.376Z,13.70
2019-05-13T18:22:43.526Z,13.50
2019-05-13T18:26:42.232Z,13.50
2019-05-13T18:30:44.866Z,13.40
2019-05-13T18:34:43.399Z,13.30
2019-05-13T18:38:44.590Z,13.30
2019-05-13T18:42:43.119Z,13.20
2019-05-13T18:46:47.794Z,13.20
2019-05-13T18:50:52.259Z,13.10
2019-05-13T18:54:57.034Z,12.80
2019-05-13T18:58:55.616Z,12.60
2019-05-13T19:03:01.107Z,12.50
2019-05-13T19:07:02.316Z,12.30
2019-05-13T19:11:01.220Z,12.20
2019-05-13T19:15:02.452Z,12.10
2019-05-13T19:19:11.789Z,12.00
2019-05-13T19:23:06.108Z,12.00
2019-05-13T19:27:04.839Z,11.90
2019-05-13T19:31:14.681Z,11.80
2019-05-13T19:35:21.666Z,11.70
2019-05-13T19:39:21.590Z,11.70
2019-05-13T19:43:26.731Z,11.70
2019-05-13T19:47:43.065Z,11.60
2019-05-13T19:51:41.721Z,11.50
2019-05-13T19:55:41.469Z,11.40
2019-05-13T19:59:47.602Z,11.40
2019-05-13T20:03:46.965Z,11.20
2019-05-13T20:07:45.490Z,11.20
2019-05-13T20:11:44.642Z,11.00
2019-05-13T20:15:43.174Z,10.90
2019-05-13T20:19:50.550Z,10.70
2019-05-13T20:23:56.115Z,10.70
2019-05-13T20:28:02.318Z,10.70
2019-05-13T20:32:12.623Z,10.80
2019-05-13T20:36:11.903Z,10.80
2019-05-13T20:40:16.757Z,10.70
2019-05-13T20:44:22.103Z,10.60
2019-05-13T20:48:37.352Z,10.50
2019-05-13T20:52:31.421Z,10.30
2019-05-13T20:56:33.659Z,10.30
2019-05-13T21:00:32.200Z,10.20
2019-05-13T21:04:32.162Z,10.10
2019-05-13T21:08:34.657Z,10.00
2019-05-13T21:12:33.199Z,10.00
2019-05-13T21:16:31.693Z,10.00
2019-05-13T21:20:32.060Z,10.00
2019-05-13T21:24:36.580Z,10.00
2019-05-13T21:28:36.945Z,9.80
2019-05-13T21:32:39.259Z,9.80
2019-05-13T21:36:37.846Z,9.80
2019-05-13T21:40:36.386Z,9.60
2019-05-13T21:44:34.851Z,9.40
2019-05-13T21:48:37.170Z,9.20
2019-05-13T21:52:38.247Z,9.20
2019-05-13T21:56:42.441Z,9.20
2019-05-13T22:00:48.662Z,9.10
2019-05-13T22:04:51.875Z,9.00
2019-05-13T22:08:55.323Z,9.00
2019-05-13T22:13:04.479Z,9.00
2019-05-13T22:17:03.217Z,8.90
2019-05-13T22:21:01.798Z,8.80
2019-05-13T22:25:06.362Z,8.70
2019-05-13T22:29:07.757Z,8.60
2019-05-13T22:33:06.235Z,8.60
2019-05-13T22:37:04.842Z,8.50
2019-05-13T22:41:05.749Z,8.40
2019-05-13T22:45:05.277Z,8.40
2019-05-13T22:49:11.606Z,8.30
2019-05-13T22:53:12.038Z,8.20
2019-05-13T22:57:11.895Z,8.20
2019-05-13T23:01:21.877Z,8.10
2019-05-13T23:05:22.750Z,8.10
2019-05-13T23:09:25.460Z,8.00
2019-05-13T23:13:23.947Z,8.00
2019-05-13T23:17:26.270Z,7.90
2019-05-13T23:21:31.120Z,7.80
2019-05-13T23:25:32.782Z,7.70
2019-05-13T23:29:35.109Z,7.60
2019-05-13T23:33:46.240Z,7.60
2019-05-13T23:37:50.884Z,7.40
2019-05-13T23:41:55.159Z,7.10
2019-05-13T23:45:53.619Z,7.00
2019-05-13T23:49:56.770Z,6.90
2019-05-13T23:53:57.179Z,6.70
2019-05-13T23:57:55.926Z,6.60
